F/V Adeline Stephen — FGUF — position and weather

sailwx.info

Track history (hours):
 
Tides and Currents Weather Stations Pressure Air Temp Water Temp Dewpoint Dewpoint Depression Visibility Wind Speed Wind Dir Waves Ship Positions

F/V Adeline Stephen

Last reported at 2014-Dec-12 03:27 UTC. Time now 2014-Dec-18 19:35 UTC.
Position N 47°24' W 003°05'.

Length 18 m.

Type: Fishing. MMSI: 228929000.

Date/timePositionNaut miles runAvg speedWind from/ knotsBaromVisibWave heightAir tempDewpointWater temp
2014-Dec-12 03:27N 47°24' W 003°05'  
2014-Dec-09 11:28N 47°27' W 003°22'8 8.7
2014-Dec-09 10:34N 47°35' W 003°22'9 9.0
2014-Dec-09 09:33N 47°44' W 003°22'0 0.1
2014-Dec-09 08:33N 47°44' W 003°22'0 0.0
2014-Dec-09 07:33N 47°44' W 003°22'0 0.0
2014-Dec-09 06:33N 47°44' W 003°22'0 0.0
2014-Dec-09 05:33N 47°44' W 003°22'0 0.0
2014-Dec-09 04:33N 47°44' W 003°22'0 0.1
2014-Dec-09 03:33N 47°44' W 003°22'0 0.0
2014-Dec-09 02:34N 47°44' W 003°22'0 0.0
2014-Dec-09 01:33N 47°44' W 003°22'  
2014-Dec-05 12:11N 47°27' W 003°22'5 8.4
2014-Dec-05 11:34N 47°33' W 003°22'9 8.6
2014-Dec-05 10:33N 47°41' W 003°22'  
Track history (hours):
 
Tides and Currents Weather Stations Pressure Air Temp Water Temp Dewpoint Dewpoint Depression Visibility Wind Speed Wind Dir Waves Ship Positions

F/V Adeline Stephen

Last reported at 2014-Dec-12 03:27 UTC. Time now 2014-Dec-18 19:35 UTC.
Position N 47°24' W 003°05'.

Length 18 m.

Type: Fishing. MMSI: 228929000.

Date/timePositionNaut miles runAvg speedWind from/ knotsBaromVisibWave heightAir tempDewpointWater temp
2014-Dec-12 03:27N 47°24' W 003°05'  
2014-Dec-09 11:28N 47°27' W 003°22'8 8.7
2014-Dec-09 10:34N 47°35' W 003°22'9 9.0
2014-Dec-09 09:33N 47°44' W 003°22'0 0.1
2014-Dec-09 08:33N 47°44' W 003°22'0 0.0
2014-Dec-09 07:33N 47°44' W 003°22'0 0.0
2014-Dec-09 06:33N 47°44' W 003°22'0 0.0
2014-Dec-09 05:33N 47°44' W 003°22'0 0.0
2014-Dec-09 04:33N 47°44' W 003°22'0 0.1
2014-Dec-09 03:33N 47°44' W 003°22'0 0.0
2014-Dec-09 02:34N 47°44' W 003°22'0 0.0
2014-Dec-09 01:33N 47°44' W 003°22'  
2014-Dec-05 12:11N 47°27' W 003°22'5 8.4
2014-Dec-05 11:34N 47°33' W 003°22'9 8.6
2014-Dec-05 10:33N 47°41' W 003°22'  

Dump ship's entire track history